createdAt,value
2018-10-05T00:00:21.255Z,99.90
2018-10-05T00:02:49.467Z,99.90
2018-10-05T00:05:17.687Z,99.90
2018-10-05T00:07:45.903Z,99.90
2018-10-05T00:10:14.130Z,99.90
2018-10-05T00:12:42.371Z,99.90
2018-10-05T00:15:10.594Z,99.90
2018-10-05T00:17:38.927Z,99.90
2018-10-05T00:20:07.198Z,99.90
2018-10-05T00:22:35.399Z,99.90
2018-10-05T00:25:03.639Z,99.90
2018-10-05T00:27:31.856Z,99.90
2018-10-05T00:30:00.089Z,99.90
2018-10-05T00:32:28.324Z,99.90
2018-10-05T00:34:56.539Z,99.90
2018-10-05T00:37:24.760Z,99.90
2018-10-05T00:39:52.991Z,99.90
2018-10-05T00:42:21.211Z,99.90
2018-10-05T00:44:49.490Z,99.90
2018-10-05T00:47:17.719Z,99.90
2018-10-05T00:49:45.947Z,99.90
2018-10-05T00:52:14.168Z,99.90
2018-10-05T00:54:42.387Z,99.90
2018-10-05T00:57:10.607Z,99.90
2018-10-05T00:59:38.986Z,99.90
2018-10-05T01:02:07.227Z,99.90
2018-10-05T01:04:35.435Z,99.90
2018-10-05T01:07:03.647Z,99.90
2018-10-05T01:09:31.855Z,99.90
2018-10-05T01:12:00.052Z,99.90
2018-10-05T01:14:28.286Z,99.90
2018-10-05T01:16:56.963Z,99.90
2018-10-05T01:19:25.187Z,99.90
2018-10-05T01:21:53.399Z,99.90
2018-10-05T01:24:21.614Z,99.90
2018-10-05T01:26:49.818Z,99.90
2018-10-05T01:29:18.056Z,99.90
2018-10-05T01:31:46.288Z,99.90
2018-10-05T01:34:14.500Z,99.90
2018-10-05T01:36:42.711Z,99.90
2018-10-05T01:39:10.915Z,99.90
2018-10-05T01:41:39.218Z,99.90
2018-10-05T01:44:07.431Z,99.90
2018-10-05T01:46:35.690Z,99.90
2018-10-05T01:49:04.007Z,99.90
2018-10-05T01:51:37.246Z,99.90
2018-10-05T01:54:06.237Z,99.90
2018-10-05T01:56:35.235Z,99.90
2018-10-05T01:59:03.712Z,99.90
2018-10-05T02:01:32.608Z,99.90
2018-10-05T02:04:00.980Z,99.90
2018-10-05T02:06:29.191Z,99.90
2018-10-05T02:08:57.396Z,99.90
2018-10-05T02:11:25.625Z,99.90
2018-10-05T02:13:53.831Z,99.90
2018-10-05T02:16:22.071Z,99.90
2018-10-05T02:18:50.315Z,99.90
2018-10-05T02:21:18.534Z,99.90
2018-10-05T02:23:46.735Z,99.90
2018-10-05T02:26:14.967Z,99.90
2018-10-05T02:28:43.255Z,99.90
2018-10-05T02:31:11.475Z,99.90
2018-10-05T02:33:39.703Z,99.90
2018-10-05T02:36:07.928Z,99.90
2018-10-05T02:38:36.371Z,99.90
2018-10-05T02:41:04.667Z,99.90
2018-10-05T02:43:33.399Z,99.90
2018-10-05T02:46:01.620Z,99.90
2018-10-05T02:48:29.826Z,99.90
2018-10-05T02:50:58.044Z,99.90
2018-10-05T02:53:26.259Z,99.90
2018-10-05T02:55:54.474Z,99.90
2018-10-05T02:58:22.678Z,99.90
2018-10-05T03:01:02.407Z,99.90
2018-10-05T03:03:30.622Z,99.90
2018-10-05T03:05:58.838Z,99.90
2018-10-05T03:08:27.053Z,99.90
2018-10-05T03:10:55.267Z,99.90
2018-10-05T03:13:23.482Z,99.90
2018-10-05T03:15:51.701Z,99.90
2018-10-05T03:18:19.904Z,99.90
2018-10-05T03:20:48.135Z,99.90
2018-10-05T03:23:16.356Z,99.90
2018-10-05T03:25:44.546Z,99.90
2018-10-05T03:28:12.767Z,99.90
2018-10-05T03:30:40.991Z,99.90
2018-10-05T03:33:09.249Z,99.90
2018-10-05T03:35:37.469Z,99.90
2018-10-05T03:38:05.946Z,99.90
2018-10-05T03:40:34.159Z,99.90
2018-10-05T03:43:02.366Z,99.90
2018-10-05T03:45:30.563Z,99.90
2018-10-05T03:47:58.784Z,99.90
2018-10-05T03:50:26.960Z,99.90
2018-10-05T03:52:55.203Z,99.90
2018-10-05T03:55:23.395Z,99.90
2018-10-05T03:57:51.586Z,99.90
2018-10-05T04:00:19.779Z,99.90
2018-10-05T04:02:47.984Z,99.90
2018-10-05T04:05:16.188Z,99.90
2018-10-05T04:07:44.399Z,99.90
2018-10-05T04:10:12.619Z,99.90
2018-10-05T04:12:40.844Z,99.90
2018-10-05T04:15:09.059Z,99.90
2018-10-05T04:17:37.277Z,99.90
2018-10-05T04:20:05.479Z,99.90
2018-10-05T04:22:33.697Z,99.90
2018-10-05T04:25:01.914Z,99.90
2018-10-05T04:27:30.139Z,99.90
2018-10-05T04:29:58.351Z,99.90
2018-10-05T04:32:26.808Z,99.90
2018-10-05T04:34:55.032Z,99.90
2018-10-05T04:37:23.827Z,99.90
2018-10-05T04:39:52.052Z,99.90
2018-10-05T04:42:20.276Z,99.90
2018-10-05T04:44:48.803Z,99.90
2018-10-05T04:47:17.078Z,99.90
2018-10-05T04:49:45.494Z,99.90
2018-10-05T04:52:13.647Z,99.90
2018-10-05T04:54:41.863Z,99.90
2018-10-05T04:57:10.084Z,99.90
2018-10-05T04:59:38.330Z,99.90
2018-10-05T05:02:06.583Z,99.90
2018-10-05T05:04:34.820Z,99.90
2018-10-05T05:07:03.022Z,99.90
2018-10-05T05:09:31.256Z,99.90
2018-10-05T05:11:59.546Z,99.90
2018-10-05T05:14:27.775Z,99.90
2018-10-05T05:16:56.004Z,99.90
2018-10-05T05:19:24.257Z,99.90
2018-10-05T05:21:52.464Z,99.90
2018-10-05T05:24:20.687Z,99.90
2018-10-05T05:26:48.903Z,99.90
2018-10-05T05:29:17.162Z,99.90
2018-10-05T05:31:45.506Z,99.90
2018-10-05T05:34:13.795Z,99.90
2018-10-05T05:36:42.026Z,99.90
2018-10-05T05:39:13.287Z,99.90
2018-10-05T05:41:41.535Z,99.90
2018-10-05T05:44:09.739Z,99.90
2018-10-05T05:46:37.979Z,99.90
2018-10-05T05:49:06.196Z,99.90
2018-10-05T05:51:34.407Z,99.90
2018-10-05T05:54:02.688Z,99.90
2018-10-05T05:56:30.905Z,99.90
2018-10-05T05:58:59.135Z,99.90
2018-10-05T06:01:27.338Z,99.90
2018-10-05T06:03:55.567Z,99.90
2018-10-05T06:06:23.794Z,99.90
2018-10-05T06:08:52.059Z,99.90
2018-10-05T06:11:20.275Z,99.90
2018-10-05T06:13:48.507Z,99.90
2018-10-05T06:16:16.791Z,99.90
2018-10-05T06:18:44.985Z,99.90
2018-10-05T06:21:13.199Z,99.90
2018-10-05T06:23:41.435Z,99.90
2018-10-05T06:26:09.675Z,99.90
2018-10-05T06:28:37.904Z,99.90
2018-10-05T06:31:06.397Z,99.90
2018-10-05T06:33:34.646Z,99.90
2018-10-05T06:36:02.941Z,99.90
2018-10-05T06:38:31.183Z,99.90
2018-10-05T06:40:59.611Z,99.90
2018-10-05T06:43:27.904Z,99.90
2018-10-05T06:45:56.172Z,99.90
2018-10-05T06:48:24.424Z,99.90
2018-10-05T06:50:52.673Z,99.90
2018-10-05T06:53:20.984Z,99.90
2018-10-05T06:55:49.176Z,99.90
2018-10-05T06:58:17.415Z,99.90
2018-10-05T07:00:45.739Z,99.90
2018-10-05T07:03:13.987Z,99.90
2018-10-05T07:05:42.317Z,99.90
2018-10-05T07:08:10.609Z,99.90
2018-10-05T07:10:38.823Z,99.90
2018-10-05T07:13:07.103Z,99.90
2018-10-05T07:15:35.368Z,99.90
2018-10-05T07:18:03.666Z,99.90
2018-10-05T07:20:32.042Z,99.90
2018-10-05T07:23:00.284Z,99.90
2018-10-05T07:25:28.530Z,99.90
2018-10-05T07:27:56.793Z,99.90
2018-10-05T07:30:25.055Z,99.90
2018-10-05T07:32:53.301Z,99.90
2018-10-05T07:35:21.548Z,99.90
2018-10-05T07:37:49.782Z,99.90
2018-10-05T07:40:18.031Z,99.90
2018-10-05T07:42:46.355Z,99.90
2018-10-05T07:45:14.630Z,99.90
2018-10-05T07:47:42.875Z,99.90
2018-10-05T07:50:11.125Z,99.90
2018-10-05T07:52:39.375Z,99.90
2018-10-05T07:55:07.627Z,99.90
2018-10-05T07:57:35.947Z,99.90
2018-10-05T08:00:04.447Z,99.90
2018-10-05T08:02:32.686Z,99.90
2018-10-05T08:05:00.947Z,99.90
2018-10-05T08:07:29.183Z,99.90
2018-10-05T08:09:57.452Z,99.90
2018-10-05T08:12:25.687Z,99.90
2018-10-05T08:14:53.934Z,99.90
2018-10-05T08:17:22.178Z,99.90
2018-10-05T08:19:50.439Z,99.90
2018-10-05T08:22:18.684Z,99.90
2018-10-05T08:24:47.401Z,99.90
2018-10-05T08:27:15.991Z,99.90
2018-10-05T08:29:44.188Z,99.90
2018-10-05T08:32:12.488Z,99.90
2018-10-05T08:34:40.801Z,99.90
2018-10-05T08:37:09.011Z,99.90
2018-10-05T08:39:37.278Z,99.90
2018-10-05T08:42:05.540Z,99.90
2018-10-05T08:44:33.802Z,99.90
2018-10-05T08:47:02.043Z,99.90
2018-10-05T08:49:30.424Z,99.90
2018-10-05T08:51:58.827Z,99.90
2018-10-05T08:54:27.105Z,99.90
2018-10-05T08:56:55.343Z,99.90
2018-10-05T08:59:23.604Z,99.90
2018-10-05T09:01:51.871Z,99.90
2018-10-05T09:04:20.123Z,99.70
2018-10-05T09:06:48.347Z,99.30
2018-10-05T09:09:16.631Z,98.70
2018-10-05T09:11:44.860Z,98.00
2018-10-05T09:14:13.101Z,97.80
2018-10-05T09:16:41.327Z,97.90
2018-10-05T09:19:09.571Z,96.70
2018-10-05T09:21:37.839Z,95.40
2018-10-05T09:24:06.138Z,96.50
2018-10-05T09:26:34.351Z,95.20
2018-10-05T09:29:02.592Z,94.70
2018-10-05T09:31:30.817Z,94.20
2018-10-05T09:33:59.084Z,94.00
2018-10-05T09:36:27.303Z,93.10
2018-10-05T09:38:55.532Z,92.20
2018-10-05T09:41:23.807Z,92.00
2018-10-05T09:43:52.517Z,92.00
2018-10-05T09:46:20.824Z,92.50
2018-10-05T09:48:49.120Z,91.10
2018-10-05T09:51:17.367Z,90.50
2018-10-05T09:53:45.614Z,91.50
2018-10-05T09:56:14.229Z,90.70
2018-10-05T09:58:42.560Z,89.20
2018-10-05T10:01:16.273Z,89.60
2018-10-05T10:03:44.521Z,89.80
2018-10-05T10:06:12.829Z,88.60
2018-10-05T10:08:41.084Z,86.70
2018-10-05T10:11:09.340Z,83.50
2018-10-05T10:13:37.624Z,82.00
2018-10-05T10:16:05.882Z,81.90
2018-10-05T10:18:34.322Z,81.70
2018-10-05T10:21:02.586Z,82.40
2018-10-05T10:23:30.834Z,82.10
2018-10-05T10:25:59.103Z,80.70
2018-10-05T10:28:27.504Z,80.40
2018-10-05T10:30:55.636Z,80.10
2018-10-05T10:33:23.917Z,79.20
2018-10-05T10:35:52.168Z,77.90
2018-10-05T10:38:20.455Z,74.40
2018-10-05T10:40:48.712Z,73.20
2018-10-05T10:43:17.029Z,74.30
2018-10-05T10:45:45.290Z,72.80
2018-10-05T10:48:16.745Z,71.40
2018-10-05T10:50:44.940Z,70.70
2018-10-05T10:53:13.306Z,70.30
2018-10-05T10:55:41.532Z,70.80
2018-10-05T10:58:09.801Z,73.50
2018-10-05T11:00:38.120Z,69.20
2018-10-05T11:03:06.723Z,71.50
2018-10-05T11:05:34.939Z,71.90
2018-10-05T11:08:03.180Z,67.50
2018-10-05T11:10:31.429Z,66.90
2018-10-05T11:12:59.680Z,64.30
2018-10-05T11:15:28.213Z,65.90
2018-10-05T11:17:56.714Z,65.30
2018-10-05T11:20:29.821Z,63.50
2018-10-05T11:23:12.708Z,63.40
2018-10-05T11:25:46.749Z,65.80
2018-10-05T11:28:19.149Z,60.90
2018-10-05T11:33:43.423Z,62.90
2018-10-05T11:36:11.739Z,61.80
2018-10-05T11:38:39.994Z,62.60
2018-10-05T11:41:08.283Z,60.30
2018-10-05T11:43:36.500Z,63.00
2018-10-05T11:46:04.756Z,62.40
2018-10-05T11:48:34.660Z,63.00
2018-10-05T11:51:02.923Z,60.80
2018-10-05T11:53:31.148Z,63.10
2018-10-05T11:55:59.391Z,61.00
2018-10-05T11:58:27.619Z,60.90
2018-10-05T12:00:55.850Z,61.60
2018-10-05T12:03:24.442Z,61.40
2018-10-05T12:05:52.711Z,61.40
2018-10-05T12:08:20.934Z,62.90
2018-10-05T12:10:49.175Z,63.40
2018-10-05T12:13:17.422Z,63.90
2018-10-05T12:15:46.336Z,63.50
2018-10-05T12:18:14.548Z,62.70
2018-10-05T12:20:42.771Z,64.20
2018-10-05T12:23:11.087Z,63.30
2018-10-05T12:25:39.466Z,62.40
2018-10-05T12:28:07.913Z,63.10
2018-10-05T12:30:36.278Z,62.90
2018-10-05T12:33:04.524Z,64.30
2018-10-05T12:35:33.043Z,65.00
2018-10-05T12:38:01.299Z,66.60
2018-10-05T12:40:29.532Z,63.70
2018-10-05T12:42:57.759Z,63.30
2018-10-05T12:45:25.995Z,64.60
2018-10-05T12:47:54.219Z,67.10
2018-10-05T12:50:22.466Z,65.30
2018-10-05T12:52:50.726Z,64.20
2018-10-05T12:55:18.971Z,63.30
2018-10-05T12:57:47.192Z,66.40
2018-10-05T13:00:15.559Z,63.80
2018-10-05T13:02:43.846Z,63.70
2018-10-05T13:05:12.096Z,63.80
2018-10-05T13:07:40.320Z,65.20
2018-10-05T13:10:08.607Z,63.80
2018-10-05T13:12:37.015Z,63.50
2018-10-05T13:15:05.253Z,64.70
2018-10-05T13:17:34.580Z,64.10
2018-10-05T13:20:02.821Z,63.60
2018-10-05T13:22:31.057Z,63.30
2018-10-05T13:24:59.288Z,63.00
2018-10-05T13:27:27.539Z,64.00
2018-10-05T13:29:55.758Z,65.60
2018-10-05T13:32:24.018Z,64.60
2018-10-05T13:34:52.251Z,63.50
2018-10-05T13:37:20.520Z,63.00
2018-10-05T13:39:48.715Z,62.60
2018-10-05T13:42:17.011Z,63.10
2018-10-05T13:44:45.228Z,63.30
2018-10-05T13:47:13.590Z,65.20
2018-10-05T13:49:41.811Z,64.80
2018-10-05T13:52:10.060Z,64.90
2018-10-05T13:54:38.271Z,64.20
2018-10-05T13:57:06.500Z,64.60
2018-10-05T13:59:34.764Z,65.80
2018-10-05T14:02:02.998Z,67.10
2018-10-05T14:04:31.248Z,68.70
2018-10-05T14:06:59.509Z,67.80
2018-10-05T14:09:27.720Z,67.50
2018-10-05T14:11:55.971Z,68.20
2018-10-05T14:14:24.212Z,67.80
2018-10-05T14:16:52.464Z,67.00
2018-10-05T14:19:20.773Z,66.70
2018-10-05T14:21:49.040Z,67.90
2018-10-05T14:24:17.269Z,68.70
2018-10-05T14:26:45.515Z,70.40
2018-10-05T14:29:13.726Z,69.50
2018-10-05T14:31:41.989Z,69.30
2018-10-05T14:34:10.224Z,68.80
2018-10-05T14:36:38.563Z,68.60
2018-10-05T14:39:07.670Z,69.30
2018-10-05T14:41:35.938Z,69.90
2018-10-05T14:44:04.184Z,70.40
2018-10-05T14:46:32.438Z,71.80
2018-10-05T14:49:00.731Z,71.30
2018-10-05T14:51:28.987Z,71.60
2018-10-05T14:53:57.256Z,70.70
2018-10-05T14:56:25.532Z,70.40
2018-10-05T14:58:53.765Z,71.80
2018-10-05T15:01:22.020Z,74.00
2018-10-05T15:03:50.276Z,74.40
2018-10-05T15:06:18.511Z,74.80
2018-10-05T15:08:46.801Z,76.40
2018-10-05T15:11:15.115Z,76.40
2018-10-05T15:13:43.468Z,78.20
2018-10-05T15:16:11.762Z,78.40
2018-10-05T15:18:40.017Z,79.20
2018-10-05T15:21:08.296Z,80.30
2018-10-05T15:23:36.700Z,82.10
2018-10-05T15:26:04.962Z,82.60
2018-10-05T15:28:33.359Z,83.70
2018-10-05T15:31:01.618Z,85.70
2018-10-05T15:33:29.857Z,86.60
2018-10-05T15:35:58.926Z,87.00
2018-10-05T15:38:27.175Z,87.90
2018-10-05T15:40:55.476Z,90.10
2018-10-05T15:43:23.731Z,90.30
2018-10-05T15:45:55.494Z,90.90
2018-10-05T15:48:23.829Z,91.70
2018-10-05T15:50:52.089Z,92.70
2018-10-05T15:53:20.368Z,93.80
2018-10-05T15:55:48.596Z,95.40
2018-10-05T15:58:16.910Z,97.10
2018-10-05T16:00:45.137Z,98.50
2018-10-05T16:03:13.396Z,98.70
2018-10-05T16:05:41.668Z,99.70
2018-10-05T16:08:09.967Z,99.90
2018-10-05T16:10:38.300Z,99.90
2018-10-05T16:13:06.873Z,99.90
2018-10-05T16:15:35.178Z,99.90
2018-10-05T16:18:03.469Z,99.90
2018-10-05T16:20:31.682Z,98.70
2018-10-05T16:22:59.947Z,96.20
2018-10-05T16:25:28.179Z,96.10
2018-10-05T16:27:56.420Z,97.50
2018-10-05T16:30:24.662Z,97.30
2018-10-05T16:32:52.911Z,97.90
2018-10-05T16:35:21.146Z,96.80
2018-10-05T16:37:52.496Z,97.20
2018-10-05T16:40:20.799Z,97.30
2018-10-05T16:42:49.075Z,97.20
2018-10-05T16:45:17.332Z,97.00
2018-10-05T16:47:45.657Z,97.00
2018-10-05T16:50:13.944Z,97.60
2018-10-05T16:52:42.194Z,97.90
2018-10-05T16:55:10.446Z,98.10
2018-10-05T16:57:38.691Z,98.20
2018-10-05T17:00:10.324Z,98.10
2018-10-05T17:02:38.619Z,97.70
2018-10-05T17:05:16.787Z,97.40
2018-10-05T17:07:45.220Z,97.30
2018-10-05T17:10:13.494Z,97.40
2018-10-05T17:12:41.749Z,97.60
2018-10-05T17:15:09.994Z,97.70
2018-10-05T17:17:38.240Z,97.70
2018-10-05T17:20:06.479Z,97.70
2018-10-05T17:22:34.731Z,97.80
2018-10-05T17:25:03.020Z,97.90
2018-10-05T17:27:31.259Z,99.30
2018-10-05T17:29:59.487Z,99.90
2018-10-05T17:32:28.092Z,99.90
2018-10-05T17:34:56.343Z,99.90
2018-10-05T17:37:25.120Z,99.90
2018-10-05T17:39:53.368Z,99.70
2018-10-05T17:42:21.603Z,99.90
2018-10-05T17:44:50.175Z,99.90
2018-10-05T17:47:21.539Z,99.70
2018-10-05T17:49:49.961Z,99.80
2018-10-05T17:52:18.240Z,99.90
2018-10-05T17:54:46.463Z,99.70
2018-10-05T17:57:14.915Z,99.70
2018-10-05T17:59:43.141Z,99.90
2018-10-05T18:02:11.366Z,99.90
2018-10-05T18:04:39.607Z,99.90
2018-10-05T18:07:07.832Z,99.90
2018-10-05T18:09:36.280Z,99.90
2018-10-05T18:12:04.548Z,99.90
2018-10-05T18:14:32.784Z,99.90
2018-10-05T18:17:00.986Z,99.90
2018-10-05T18:19:29.219Z,99.90
2018-10-05T18:21:57.467Z,99.90
2018-10-05T18:24:25.690Z,99.90
2018-10-05T18:26:53.899Z,99.90
2018-10-05T18:29:22.121Z,99.90
2018-10-05T18:31:50.335Z,99.90
2018-10-05T18:34:18.555Z,99.90
2018-10-05T18:36:46.773Z,99.90
2018-10-05T18:39:15.008Z,99.90
2018-10-05T18:41:43.235Z,99.90
2018-10-05T18:44:11.493Z,99.90
2018-10-05T18:46:39.695Z,99.90
2018-10-05T18:49:07.937Z,99.90
2018-10-05T18:51:36.162Z,99.90
2018-10-05T18:54:04.426Z,99.90
2018-10-05T18:56:44.121Z,99.90
2018-10-05T18:59:12.363Z,99.90
2018-10-05T19:01:40.563Z,99.90
2018-10-05T19:04:08.791Z,99.90
2018-10-05T19:06:37.018Z,99.90
2018-10-05T19:09:06.167Z,99.90
2018-10-05T19:11:35.166Z,99.90
2018-10-05T19:14:03.390Z,99.90
2018-10-05T19:16:31.814Z,99.90
2018-10-05T19:19:00.040Z,99.90
2018-10-05T19:21:28.348Z,99.90
2018-10-05T19:23:56.564Z,99.90
2018-10-05T19:26:25.000Z,99.90
2018-10-05T19:28:53.056Z,99.90
2018-10-05T19:31:21.509Z,99.90
2018-10-05T19:33:49.726Z,99.90
2018-10-05T19:36:17.970Z,99.90
2018-10-05T19:38:46.171Z,99.90
2018-10-05T19:41:14.399Z,99.90
2018-10-05T19:43:42.618Z,99.90
2018-10-05T19:46:10.824Z,99.90
2018-10-05T19:48:39.032Z,99.90
2018-10-05T19:51:07.255Z,99.90
2018-10-05T19:53:35.486Z,99.90
2018-10-05T19:56:03.668Z,99.90
2018-10-05T19:58:31.867Z,99.90
2018-10-05T20:01:00.075Z,99.90
2018-10-05T20:03:28.273Z,99.90
2018-10-05T20:05:56.482Z,99.90
2018-10-05T20:08:24.707Z,99.90
2018-10-05T20:10:52.907Z,99.90
2018-10-05T20:13:21.103Z,99.90
2018-10-05T20:15:49.315Z,99.90
2018-10-05T20:18:17.668Z,99.90
2018-10-05T20:20:45.755Z,99.90
2018-10-05T20:23:13.943Z,99.90
2018-10-05T20:25:42.231Z,99.90
2018-10-05T20:28:10.420Z,99.90
2018-10-05T20:30:38.623Z,99.90
2018-10-05T20:33:06.883Z,99.90
2018-10-05T20:35:35.142Z,99.90
2018-10-05T20:38:03.311Z,99.90
2018-10-05T20:40:31.895Z,99.90
2018-10-05T20:43:00.267Z,99.90
2018-10-05T20:45:28.499Z,99.90
2018-10-05T20:47:56.814Z,99.90
2018-10-05T20:50:25.007Z,99.90
2018-10-05T20:52:53.786Z,99.90
2018-10-05T20:55:21.984Z,99.90
2018-10-05T20:57:50.277Z,99.90
2018-10-05T21:00:18.481Z,99.90
2018-10-05T21:02:46.734Z,99.90
2018-10-05T21:05:14.934Z,99.90
2018-10-05T21:07:43.351Z,99.90
2018-10-05T21:10:11.818Z,99.90
2018-10-05T21:12:40.204Z,99.90
2018-10-05T21:15:08.470Z,99.90
2018-10-05T21:17:36.603Z,99.90
2018-10-05T21:20:04.851Z,99.90
2018-10-05T21:22:33.047Z,99.90
2018-10-05T21:25:01.244Z,99.90
2018-10-05T21:27:29.450Z,99.90
2018-10-05T21:29:57.650Z,99.90
2018-10-05T21:32:25.951Z,99.90
2018-10-05T21:34:54.144Z,99.90
2018-10-05T21:37:22.351Z,99.90
2018-10-05T21:39:50.547Z,99.90
2018-10-05T21:42:18.767Z,99.90
2018-10-05T21:44:46.973Z,99.90
2018-10-05T21:47:15.180Z,99.90
2018-10-05T21:49:43.368Z,99.90
2018-10-05T21:52:11.576Z,99.90
2018-10-05T21:54:39.763Z,99.90
2018-10-05T21:57:07.975Z,99.90
2018-10-05T21:59:36.174Z,99.90
2018-10-05T22:02:04.365Z,99.90
2018-10-05T22:04:32.558Z,99.90
2018-10-05T22:07:00.767Z,99.90
2018-10-05T22:09:28.955Z,99.90
2018-10-05T22:11:57.155Z,99.90
2018-10-05T22:14:25.343Z,99.90
2018-10-05T22:16:53.539Z,99.90
2018-10-05T22:19:21.788Z,99.90
2018-10-05T22:21:49.948Z,99.90
2018-10-05T22:24:18.251Z,99.90
2018-10-05T22:26:46.454Z,99.90
2018-10-05T22:29:14.654Z,99.90
2018-10-05T22:31:42.862Z,99.90
2018-10-05T22:34:11.078Z,99.90
2018-10-05T22:36:39.315Z,99.90
2018-10-05T22:39:07.634Z,99.90
2018-10-05T22:41:36.024Z,99.90
2018-10-05T22:44:04.250Z,99.90
2018-10-05T22:46:32.475Z,99.90
2018-10-05T22:49:00.845Z,99.90
2018-10-05T22:51:29.054Z,99.90
2018-10-05T22:53:57.287Z,99.90
2018-10-05T22:56:25.500Z,99.90
2018-10-05T22:58:53.731Z,99.90
2018-10-05T23:01:21.944Z,99.90
2018-10-05T23:03:50.178Z,99.90
2018-10-05T23:06:18.391Z,99.90
2018-10-05T23:08:46.665Z,99.90
2018-10-05T23:11:14.874Z,99.90
2018-10-05T23:13:43.107Z,99.90
2018-10-05T23:16:11.327Z,99.90
2018-10-05T23:18:39.548Z,99.90
2018-10-05T23:21:07.763Z,99.90
2018-10-05T23:23:36.060Z,99.90
2018-10-05T23:26:04.264Z,99.90
2018-10-05T23:28:32.487Z,99.90
2018-10-05T23:31:00.711Z,99.90
2018-10-05T23:33:28.932Z,99.90
2018-10-05T23:35:57.177Z,99.90
2018-10-05T23:38:25.406Z,99.90
2018-10-05T23:40:53.654Z,99.90
2018-10-05T23:43:21.930Z,99.90
2018-10-05T23:45:50.143Z,99.90
2018-10-05T23:48:18.587Z,99.90
2018-10-05T23:50:46.940Z,99.90
2018-10-05T23:53:15.195Z,99.90
2018-10-05T23:55:43.445Z,99.90
2018-10-05T23:58:11.707Z,99.90
